Cielo Di Iyo — HOET — position and weather

sailwx.info

Track history (hours):
 
Tides and Currents Weather Stations Pressure Air Temp Water Temp Dewpoint Dewpoint Depression Visibility Wind Speed Wind Dir Waves Ship Positions

Cielo Di Iyo

Last reported at 2017-Dec-03 09:16 UTC. Time now 2017-Dec-18 18:41 UTC.
Position N 32°37' E 132°30'.
Warning: this ship's position is 15 days out of date.

Length 183 m; draft 8.1 m.

Type: Cargo ship. MMSI: 372771000.

Date/timePositionNaut miles runAvg speedWind from/ knotsBaromVisibWave heightAir tempDewpointWater temp
2017-Dec-03 09:16N 32°37' E 132°30'312.8
2017-Dec-03 09:00N 32°39' E 132°27'612.9
2017-Dec-03 08:30N 32°45' E 132°23'612.8
2017-Dec-03 08:00N 32°51' E 132°20'812.5
2017-Dec-03 07:20N 32°58' E 132°15'412.7
2017-Dec-03 07:00N 33°02' E 132°13'713.0
2017-Dec-03 06:29N 33°08' E 132°08'613.2
2017-Dec-03 06:00N 33°12' E 132°04'511.0
2017-Dec-03 05:30N 33°16' E 131°59'4 8.5
2017-Dec-03 05:00N 33°18' E 131°54'713.1
2017-Dec-03 04:30N 33°18' E 131°47'611.7
2017-Dec-03 04:00N 33°17' E 131°40'1 0.1
2017-Dec-02 07:14N 33°16' E 131°40'1 2.2
2017-Dec-02 07:00N 33°16' E 131°40'2 4.0
2017-Dec-02 06:30N 33°18' E 131°42'4 0.6
2017-Dec-02 00:39N 33°16' E 131°46'0 0.8
2017-Dec-02 00:30N 33°16' E 131°46'4 7.3
2017-Dec-02 00:00N 33°17' E 131°50'612.9
2017-Dec-01 23:30N 33°19' E 131°57'710.5
2017-Dec-01 22:49N 33°12' E 131°59'31210.2
2017-Nov-30 16:20N 34°09' E 138°08'511.3
2017-Nov-30 15:55N 34°11' E 138°13'511.0
2017-Nov-30 15:29N 34°13' E 138°18'910.7
2017-Nov-30 14:41N 34°17' E 138°27'310.4
2017-Nov-30 14:22N 34°18' E 138°31'410.2
2017-Nov-30 14:00N 34°20' E 138°35'510.4
2017-Nov-30 13:30N 34°22' E 138°41'610.7
2017-Nov-30 12:55N 34°25' E 138°48'610.5
2017-Nov-30 12:23N 34°27' E 138°54'410.0
2017-Nov-30 12:00N 34°29' E 138°58'5 9.5
2017-Nov-30 11:30N 34°31' E 139°03'510.5
2017-Nov-30 11:00N 34°36' E 139°06'510.8
2017-Nov-30 10:30N 34°41' E 139°09'611.2
2017-Nov-30 10:00N 34°45' E 139°12'612.3
2017-Nov-30 09:30N 34°51' E 139°16'611.6
2017-Nov-30 08:59N 34°54' E 139°22'511.3
2017-Nov-30 08:30N 34°57' E 139°27'612.0
2017-Nov-30 08:01N 35°00' E 139°33'612.5
2017-Nov-30 07:31N 35°04' E 139°40'713.1
2017-Nov-30 07:00N 35°09' E 139°44'611.3
2017-Nov-30 06:30N 35°15' E 139°46'611.6
2017-Nov-30 06:01N 35°20' E 139°42'510.6
2017-Nov-30 05:30N 35°25' E 139°44'4 8.2
2017-Nov-30 05:00N 35°24' E 139°49'3 4.8
2017-Nov-30 04:23N 35°21' E 139°51'0 0.0
2017-Nov-30 03:59N 35°21' E 139°51'0 0.0
2017-Nov-30 03:29N 35°21' E 139°51'0 0.0
2017-Nov-30 02:59N 35°21' E 139°51'0 0.0
2017-Nov-30 02:29N 35°21' E 139°51'0 0.0
2017-Nov-30 01:59N 35°21' E 139°51'0 0.0
2017-Nov-30 01:29N 35°21' E 139°51'0 0.0
2017-Nov-30 00:59N 35°21' E 139°51'0 0.0
2017-Nov-30 00:29N 35°21' E 139°51'0 0.0
2017-Nov-29 23:59N 35°21' E 139°51'0 0.0
2017-Nov-29 23:29N 35°21' E 139°51'0 0.0
2017-Nov-29 22:53N 35°21' E 139°51'0 0.0
2017-Nov-29 22:26N 35°21' E 139°51'0 0.0
2017-Nov-29 21:59N 35°21' E 139°51'0 0.0
2017-Nov-29 21:26N 35°21' E 139°51'0 0.0
2017-Nov-29 20:59N 35°21' E 139°51'0 0.0
2017-Nov-29 20:29N 35°21' E 139°51'0 0.0
2017-Nov-29 19:53N 35°21' E 139°51'0 0.0
2017-Nov-29 19:29N 35°21' E 139°51'0 0.0
2017-Nov-29 18:59N 35°21' E 139°51'0 0.0
2017-Nov-29 18:29N 35°21' E 139°51'0 0.0
2017-Nov-29 17:59N 35°21' E 139°51'0 0.0
2017-Nov-29 17:29N 35°21' E 139°51'0 0.0
2017-Nov-29 16:59N 35°21' E 139°51'0 0.0
2017-Nov-29 16:29N 35°21' E 139°51'0 0.0
2017-Nov-29 15:59N 35°21' E 139°51'0 0.0
2017-Nov-29 15:29N 35°21' E 139°51'0 0.0
2017-Nov-29 14:59N 35°21' E 139°51'0 0.0
2017-Nov-29 14:26N 35°21' E 139°51'0 0.0
2017-Nov-29 13:59N 35°21' E 139°51'0 0.0
2017-Nov-29 13:29N 35°21' E 139°51'0 0.0
2017-Nov-29 12:56N 35°21' E 139°51'0 0.0
2017-Nov-29 12:29N 35°21' E 139°51'0 0.0
2017-Nov-29 11:59N 35°21' E 139°51'0 0.0
2017-Nov-29 11:29N 35°21' E 139°51'0 0.0
2017-Nov-29 10:59N 35°21' E 139°51'0 0.0
2017-Nov-29 10:29N 35°21' E 139°51'0 0.0
2017-Nov-29 09:59N 35°21' E 139°51'0 0.0
2017-Nov-29 09:29N 35°21' E 139°51'0 0.0
2017-Nov-29 08:59N 35°21' E 139°51'0 0.0
2017-Nov-29 08:29N 35°21' E 139°51'0 0.0
2017-Nov-29 07:59N 35°21' E 139°51'0 0.0
2017-Nov-29 07:29N 35°21' E 139°51'0 0.0
2017-Nov-29 06:59N 35°21' E 139°51'0 0.0
2017-Nov-29 06:29N 35°21' E 139°51'0 0.0
2017-Nov-29 05:59N 35°21' E 139°51'0 0.0
2017-Nov-29 05:26N 35°21' E 139°51'0 0.0
2017-Nov-29 04:59N 35°21' E 139°51'0 0.0
2017-Nov-29 04:29N 35°21' E 139°51'0 0.0
2017-Nov-29 03:59N 35°21' E 139°51'0 0.0
2017-Nov-29 03:29N 35°21' E 139°51'0 0.0
2017-Nov-29 02:59N 35°21' E 139°51'0 0.0
2017-Nov-29 02:29N 35°21' E 139°51'0 0.0
2017-Nov-29 01:53N 35°21' E 139°51'0 0.0
2017-Nov-29 01:29N 35°21' E 139°51'0 0.0
2017-Nov-29 00:59N 35°21' E 139°51'0 0.0
2017-Nov-29 00:26N 35°21' E 139°51'0 0.0
2017-Nov-28 23:59N 35°21' E 139°51'0 0.0
2017-Nov-28 23:29N 35°21' E 139°51'0 0.0
2017-Nov-28 22:59N 35°21' E 139°51'0 0.0
2017-Nov-28 22:23N 35°21' E 139°51'0 0.0
2017-Nov-28 21:59N 35°21' E 139°51'0 0.0
2017-Nov-28 21:29N 35°21' E 139°51'0 0.0
2017-Nov-28 20:59N 35°21' E 139°51'0 0.0
2017-Nov-28 20:29N 35°21' E 139°51'0 0.0
2017-Nov-28 19:59N 35°21' E 139°51'0 0.0
2017-Nov-28 19:29N 35°21' E 139°51'0 0.0
2017-Nov-28 18:59N 35°21' E 139°51'0 0.0
2017-Nov-28 18:29N 35°21' E 139°51'0 0.0
2017-Nov-28 17:59N 35°21' E 139°51'0 0.0
2017-Nov-28 17:26N 35°21' E 139°51'0 0.0
2017-Nov-28 16:59N 35°21' E 139°51'0 0.0
2017-Nov-28 16:29N 35°21' E 139°51'0 0.0
2017-Nov-28 15:59N 35°21' E 139°51'0 0.0
2017-Nov-28 14:59N 35°21' E 139°51'0 0.0
2017-Nov-28 14:26N 35°21' E 139°51'0 0.0
2017-Nov-28 13:59N 35°21' E 139°51'0 0.0
2017-Nov-28 13:29N 35°21' E 139°51'0 0.0
2017-Nov-28 12:59N 35°21' E 139°51'0 0.0
2017-Nov-28 12:29N 35°21' E 139°51'0 0.0
2017-Nov-28 11:59N 35°21' E 139°51'0 0.0
2017-Nov-28 11:29N 35°21' E 139°51'0 0.0
2017-Nov-28 10:56N 35°21' E 139°51'0 0.0
2017-Nov-28 10:29N 35°21' E 139°51'0 0.0
2017-Nov-28 09:59N 35°21' E 139°51'0 0.0
2017-Nov-28 09:29N 35°21' E 139°51'0 0.0
2017-Nov-28 08:56N 35°21' E 139°51'0 0.0
2017-Nov-28 08:29N 35°21' E 139°51'0 0.0
2017-Nov-28 07:59N 35°21' E 139°51'0 0.0
2017-Nov-28 07:29N 35°21' E 139°51'0 0.0
2017-Nov-28 06:41N 35°21' E 139°51'0 0.0
2017-Nov-28 06:29N 35°21' E 139°51'0 0.0
2017-Nov-28 05:59N 35°21' E 139°51'0 0.0
2017-Nov-28 05:29N 35°21' E 139°51'0 0.0
2017-Nov-28 04:29N 35°21' E 139°51'0 0.0
2017-Nov-28 03:56N 35°21' E 139°51'0 0.0
2017-Nov-28 03:29N 35°21' E 139°51'0 0.0
2017-Nov-28 02:59N 35°21' E 139°51'0 0.0
2017-Nov-28 02:26N 35°21' E 139°51'0 0.0
2017-Nov-28 01:59N 35°21' E 139°51'0 0.0
2017-Nov-28 01:17N 35°21' E 139°51'0 0.0
2017-Nov-28 00:59N 35°21' E 139°51'0 0.0
2017-Nov-28 00:29N 35°21' E 139°51'0 0.0
2017-Nov-27 23:59N 35°21' E 139°51'0 0.0
2017-Nov-27 23:29N 35°21' E 139°51'0 0.0
2017-Nov-27 22:53N 35°21' E 139°51'0 0.0
2017-Nov-27 22:29N 35°21' E 139°51'0 0.0
2017-Nov-27 21:59N 35°21' E 139°51'0 0.0
2017-Nov-27 21:29N 35°21' E 139°51'0 0.0
2017-Nov-27 20:59N 35°21' E 139°51'0 0.0
2017-Nov-27 20:29N 35°21' E 139°51'0 0.6
2017-Nov-27 20:00N 35°22' E 139°51'0 0.1
2017-Nov-27 19:30N 35°22' E 139°51'0 0.0
2017-Nov-27 19:00N 35°22' E 139°51'0 0.0
2017-Nov-27 18:30N 35°22' E 139°51'0 0.0
2017-Nov-27 18:00N 35°22' E 139°51'0 0.0
2017-Nov-27 17:30N 35°22' E 139°51'0 0.0
2017-Nov-27 17:00N 35°22' E 139°51'0 0.0
2017-Nov-27 16:30N 35°22' E 139°51'0 0.0
2017-Nov-27 16:00N 35°22' E 139°51'0 0.0
2017-Nov-27 15:30N 35°22' E 139°51'0 0.0
2017-Nov-27 14:54N 35°22' E 139°51'0 0.0
2017-Nov-27 14:30N 35°22' E 139°51'0 0.0
2017-Nov-27 14:00N 35°22' E 139°51'0 0.0
2017-Nov-27 13:30N 35°22' E 139°51'0 0.0
2017-Nov-27 13:00N 35°22' E 139°51'0 0.0
2017-Nov-27 12:30N 35°22' E 139°51'0 0.0
2017-Nov-27 12:00N 35°22' E 139°51'0 0.0
2017-Nov-27 11:30N 35°22' E 139°51'0 0.0
2017-Nov-27 10:51N 35°22' E 139°51'0 0.0
2017-Nov-27 10:30N 35°22' E 139°51'0 0.0
2017-Nov-27 10:00N 35°22' E 139°51'0 0.0
2017-Nov-27 09:30N 35°22' E 139°51'0 0.0
2017-Nov-27 09:00N 35°22' E 139°51'0 0.0
2017-Nov-27 08:27N 35°22' E 139°51'0 0.0
2017-Nov-27 07:54N 35°22' E 139°51'0 0.0
2017-Nov-27 07:30N 35°22' E 139°51'0 0.0
2017-Nov-27 06:42N 35°22' E 139°51'0 0.0
2017-Nov-27 06:30N 35°22' E 139°51'0 0.0
2017-Nov-27 06:00N 35°22' E 139°51'0 0.0
2017-Nov-27 05:27N 35°22' E 139°51'0 0.0
2017-Nov-27 05:00N 35°22' E 139°51'0 0.0
2017-Nov-27 04:27N 35°22' E 139°51'0 0.0
2017-Nov-27 04:00N 35°22' E 139°51'0 0.0
2017-Nov-27 03:21N 35°22' E 139°51'0 0.0
2017-Nov-27 03:00N 35°22' E 139°51'0 0.0
2017-Nov-27 02:27N 35°22' E 139°51'0 0.0
2017-Nov-27 02:00N 35°22' E 139°51'0 0.0
2017-Nov-27 01:30N 35°22' E 139°51'0 0.0
2017-Nov-27 01:00N 35°22' E 139°51'0 0.0
2017-Nov-27 00:27N 35°22' E 139°51'0 0.0
2017-Nov-27 00:00N 35°22' E 139°51'0 0.0
2017-Nov-26 23:30N 35°22' E 139°51'0 0.0
2017-Nov-26 23:00N 35°22' E 139°51'0 0.0
2017-Nov-26 22:27N 35°22' E 139°51'0 0.0
2017-Nov-26 21:54N 35°22' E 139°51'0 0.0
2017-Nov-26 21:30N 35°22' E 139°51'0 0.0
2017-Nov-26 20:57N 35°22' E 139°51'0 0.0
2017-Nov-26 20:30N 35°22' E 139°51'0 0.0
2017-Nov-26 20:00N 35°22' E 139°51'0 0.0
2017-Nov-26 19:30N 35°22' E 139°51'0 0.0
2017-Nov-26 19:00N 35°22' E 139°51'0 0.0
2017-Nov-26 18:30N 35°22' E 139°51'0 0.0
2017-Nov-26 18:00N 35°22' E 139°51'0 0.0
2017-Nov-26 17:30N 35°22' E 139°51'0 0.0
2017-Nov-26 17:00N 35°22' E 139°51'0 0.0
2017-Nov-26 16:21N 35°22' E 139°51'0 0.0
2017-Nov-26 16:00N 35°22' E 139°51'0 0.0
2017-Nov-26 15:30N 35°22' E 139°51'0 0.0
2017-Nov-26 15:00N 35°22' E 139°51'0 0.0
2017-Nov-26 14:27N 35°22' E 139°51'0 0.0
2017-Nov-26 14:00N 35°22' E 139°51'0 0.0
2017-Nov-26 13:30N 35°22' E 139°51'0 0.0
2017-Nov-26 13:00N 35°22' E 139°51'0 0.0
2017-Nov-26 12:30N 35°22' E 139°51'0 0.0
2017-Nov-26 12:00N 35°22' E 139°51'0 0.0
2017-Nov-26 11:30N 35°22' E 139°51'0 0.0
2017-Nov-26 11:00N 35°22' E 139°51'0 0.0
2017-Nov-26 10:30N 35°22' E 139°51'0 0.0
2017-Nov-26 09:57N 35°22' E 139°51'0 0.0
2017-Nov-26 09:30N 35°22' E 139°51'0 0.0
2017-Nov-26 09:00N 35°22' E 139°51'0 0.0
2017-Nov-26 08:30N 35°22' E 139°51'0 0.0
2017-Nov-26 08:00N 35°22' E 139°51'0 0.0
2017-Nov-26 07:30N 35°22' E 139°51'0 0.0
2017-Nov-26 07:00N 35°22' E 139°51'0 0.0
2017-Nov-26 06:24N 35°22' E 139°51'0 0.0
2017-Nov-26 05:42N 35°22' E 139°51'0 0.0
2017-Nov-26 05:24N 35°22' E 139°51'0 0.0
2017-Nov-26 05:00N 35°22' E 139°51'0 0.0
2017-Nov-26 04:30N 35°22' E 139°51'0 0.0
2017-Nov-26 03:57N 35°22' E 139°51'0 0.0
2017-Nov-26 03:30N 35°22' E 139°51'0 0.0
2017-Nov-26 03:00N 35°22' E 139°51'0 0.0
2017-Nov-26 02:30N 35°22' E 139°51'0 0.0
2017-Nov-26 02:00N 35°22' E 139°51'0 0.0
2017-Nov-26 01:27N 35°22' E 139°51'0 0.0
2017-Nov-26 01:00N 35°22' E 139°51'0 0.0
2017-Nov-26 00:24N 35°22' E 139°51'0 0.0
2017-Nov-25 23:45N 35°22' E 139°51'0 0.0
2017-Nov-25 23:30N 35°22' E 139°51'0 0.0
2017-Nov-25 22:57N 35°22' E 139°51'0 0.0
2017-Nov-25 22:30N 35°22' E 139°51'0 0.0
2017-Nov-25 21:57N 35°22' E 139°51'0 0.0
2017-Nov-25 21:30N 35°22' E 139°51'0 0.0
2017-Nov-25 21:00N 35°22' E 139°51'0 0.0
2017-Nov-25 20:30N 35°22' E 139°51'0 0.0
2017-Nov-25 19:51N 35°22' E 139°51'0 0.0
2017-Nov-25 19:27N 35°22' E 139°51'0 0.0
2017-Nov-25 19:00N 35°22' E 139°51'0 0.0
2017-Nov-25 18:27N 35°22' E 139°51'0 0.0
2017-Nov-25 17:57N 35°22' E 139°51'0 0.0
2017-Nov-25 17:27N 35°22' E 139°51'0 0.0
2017-Nov-25 16:57N 35°22' E 139°51'0 0.0
2017-Nov-25 16:27N 35°22' E 139°51'0 0.0
2017-Nov-25 15:57N 35°22' E 139°51'0 0.0
2017-Nov-25 15:30N 35°22' E 139°51'0 0.0
2017-Nov-25 15:00N 35°22' E 139°51'0 0.0
2017-Nov-25 14:27N 35°22' E 139°51'0 0.0
2017-Nov-25 14:00N 35°22' E 139°51'0 0.0
2017-Nov-25 13:30N 35°22' E 139°51'0 0.0
2017-Nov-25 13:00N 35°22' E 139°51'0 0.0
2017-Nov-25 12:27N 35°22' E 139°51'0 0.0
2017-Nov-25 11:57N 35°22' E 139°51'0 0.0
2017-Nov-25 11:27N 35°22' E 139°51'0 0.0
2017-Nov-25 11:00N 35°22' E 139°51'0 0.0
2017-Nov-25 10:27N 35°22' E 139°51'0 0.0
2017-Nov-25 09:45N 35°22' E 139°51'0 0.0
2017-Nov-25 09:30N 35°22' E 139°51'0 0.0
2017-Nov-25 08:57N 35°22' E 139°51'0 0.0
2017-Nov-25 08:30N 35°22' E 139°51'0 0.0
2017-Nov-25 07:54N 35°22' E 139°51'0 0.0
2017-Nov-25 07:30N 35°22' E 139°51'0 0.0
2017-Nov-25 06:51N 35°22' E 139°51'0 0.0
2017-Nov-25 06:30N 35°22' E 139°51'0 0.0
2017-Nov-25 05:42N 35°22' E 139°51'0 0.0
2017-Nov-25 05:30N 35°22' E 139°51'0 0.0
2017-Nov-25 04:57N 35°22' E 139°51'0 0.0
2017-Nov-25 04:27N 35°22' E 139°51'0 0.0
2017-Nov-25 04:00N 35°22' E 139°51'0 0.0
2017-Nov-25 03:24N 35°22' E 139°51'0 0.0
2017-Nov-25 02:54N 35°22' E 139°51'0 0.0
2017-Nov-25 02:27N 35°22' E 139°51'0 0.0
2017-Nov-25 02:00N 35°22' E 139°51'0 0.0
2017-Nov-25 01:30N 35°22' E 139°51'0 0.0
2017-Nov-25 01:00N 35°22' E 139°51'0 0.0
2017-Nov-25 00:30N 35°22' E 139°51'0 0.0
2017-Nov-25 00:00N 35°22' E 139°51'0 0.0
2017-Nov-24 23:30N 35°22' E 139°51'0 0.0
2017-Nov-24 23:00N 35°22' E 139°51'0 0.0
2017-Nov-24 22:27N 35°22' E 139°51'0 0.0
2017-Nov-24 21:54N 35°22' E 139°51'0 0.0
2017-Nov-24 21:24N 35°22' E 139°51'0 0.0
2017-Nov-24 20:54N 35°22' E 139°51'0 0.1
2017-Nov-24 20:30N 35°22' E 139°51'1 2.2
2017-Nov-24 20:01N 35°22' E 139°50'2 3.9
2017-Nov-24 19:29N 35°22' E 139°47'0 0.1
2017-Nov-24 18:59N 35°22' E 139°47'0 0.0
2017-Nov-24 18:29N 35°22' E 139°47'0 0.0
2017-Nov-24 17:59N 35°22' E 139°47'0 0.1
2017-Nov-24 17:29N 35°22' E 139°47'0 0.0
2017-Nov-24 16:56N 35°22' E 139°47'0 0.0
2017-Nov-24 16:29N 35°22' E 139°47'0 0.2
2017-Nov-24 15:59N 35°22' E 139°47'0 0.1
2017-Nov-24 15:29N 35°22' E 139°47'0 0.0
2017-Nov-24 14:59N 35°22' E 139°47'0 0.0
2017-Nov-24 14:29N 35°22' E 139°47'0 0.0
2017-Nov-24 13:59N 35°22' E 139°47'0 0.1
2017-Nov-24 13:29N 35°22' E 139°47'0 0.1
2017-Nov-24 12:59N 35°22' E 139°47'0 0.0
2017-Nov-24 12:29N 35°22' E 139°47'0 0.0
2017-Nov-24 11:59N 35°22' E 139°47'0 0.0
2017-Nov-24 11:29N 35°22' E 139°47'0 0.0
2017-Nov-24 10:59N 35°22' E 139°47'0 0.0
2017-Nov-24 10:29N 35°22' E 139°47'0 0.1
2017-Nov-24 09:56N 35°22' E 139°47'0 0.0
2017-Nov-24 09:29N 35°22' E 139°47'0 0.2
2017-Nov-24 08:56N 35°22' E 139°47'0 0.1
2017-Nov-24 08:29N 35°22' E 139°47'0 0.1
2017-Nov-24 07:59N 35°22' E 139°47'0 0.0
2017-Nov-24 07:29N 35°22' E 139°47'0 0.0
2017-Nov-24 06:56N 35°22' E 139°47'0 0.0
2017-Nov-24 06:29N 35°22' E 139°47'0 0.0
2017-Nov-24 05:59N 35°22' E 139°47'0 0.0
2017-Nov-24 05:29N 35°22' E 139°47'0 0.0
2017-Nov-24 04:59N 35°22' E 139°47'0 0.0
2017-Nov-24 04:29N 35°22' E 139°47'0 0.0
2017-Nov-24 03:59N 35°22' E 139°47'0 0.1
2017-Nov-24 03:29N 35°22' E 139°47'0 0.0
2017-Nov-24 02:59N 35°22' E 139°47'0 0.3
2017-Nov-24 02:29N 35°22' E 139°47'0 0.3
2017-Nov-24 01:59N 35°22' E 139°47'0 0.0
2017-Nov-24 01:29N 35°22' E 139°47'0 0.0
2017-Nov-24 00:59N 35°22' E 139°47'0 0.0
2017-Nov-24 00:29N 35°22' E 139°47'0 0.0
2017-Nov-23 23:59N 35°22' E 139°47'0 0.0
2017-Nov-23 23:29N 35°22' E 139°47'0 0.0
2017-Nov-23 22:59N 35°22' E 139°47'0 0.1
2017-Nov-23 22:29N 35°22' E 139°47'0 0.0
2017-Nov-23 21:59N 35°22' E 139°47'0 0.0
2017-Nov-23 21:29N 35°22' E 139°47'0 0.0
2017-Nov-23 20:59N 35°22' E 139°47'0 0.0
2017-Nov-23 20:29N 35°22' E 139°47'0 0.1
2017-Nov-23 19:59N 35°22' E 139°47'0 0.0
2017-Nov-23 19:29N 35°22' E 139°47'0 0.0
2017-Nov-23 18:59N 35°22' E 139°47'0 0.0
2017-Nov-23 18:29N 35°22' E 139°47'0 0.0
2017-Nov-23 17:59N 35°22' E 139°47'0 0.0
2017-Nov-23 17:29N 35°22' E 139°47'0 0.1
2017-Nov-23 16:59N 35°22' E 139°47'0 0.0
2017-Nov-23 16:29N 35°22' E 139°47'0 0.0
2017-Nov-23 15:59N 35°22' E 139°47'0 0.1
2017-Nov-23 15:29N 35°22' E 139°47'0 0.1
2017-Nov-23 14:59N 35°22' E 139°47'0 0.0
2017-Nov-23 14:29N 35°22' E 139°47'0 0.1
2017-Nov-23 13:59N 35°22' E 139°47'0 0.1
2017-Nov-23 13:29N 35°22' E 139°47'0 0.0
2017-Nov-23 12:59N 35°22' E 139°47'0 0.1
2017-Nov-23 12:29N 35°22' E 139°47'0 0.0
2017-Nov-23 11:56N 35°22' E 139°47'0 0.0
2017-Nov-23 11:29N 35°22' E 139°47'0 0.0
2017-Nov-23 10:59N 35°22' E 139°47'0 0.1
2017-Nov-23 10:29N 35°22' E 139°47'0 0.0
2017-Nov-23 09:59N 35°22' E 139°47'0 0.1
2017-Nov-23 09:29N 35°22' E 139°47'  
Track history (hours):
 
Tides and Currents Weather Stations Pressure Air Temp Water Temp Dewpoint Dewpoint Depression Visibility Wind Speed Wind Dir Waves Ship Positions

Cielo Di Iyo

Last reported at 2017-Dec-03 09:16 UTC. Time now 2017-Dec-18 18:41 UTC.
Position N 32°37' E 132°30'.
Warning: this ship's position is 15 days out of date.

Length 183 m; draft 8.1 m.

Type: Cargo ship. MMSI: 372771000.

Date/timePositionNaut miles runAvg speedWind from/ knotsBaromVisibWave heightAir tempDewpointWater temp
2017-Dec-03 09:16N 32°37' E 132°30'312.8
2017-Dec-03 09:00N 32°39' E 132°27'612.9
2017-Dec-03 08:30N 32°45' E 132°23'612.8
2017-Dec-03 08:00N 32°51' E 132°20'812.5
2017-Dec-03 07:20N 32°58' E 132°15'412.7
2017-Dec-03 07:00N 33°02' E 132°13'713.0
2017-Dec-03 06:29N 33°08' E 132°08'613.2
2017-Dec-03 06:00N 33°12' E 132°04'511.0
2017-Dec-03 05:30N 33°16' E 131°59'4 8.5
2017-Dec-03 05:00N 33°18' E 131°54'713.1
2017-Dec-03 04:30N 33°18' E 131°47'611.7
2017-Dec-03 04:00N 33°17' E 131°40'1 0.1
2017-Dec-02 07:14N 33°16' E 131°40'1 2.2
2017-Dec-02 07:00N 33°16' E 131°40'2 4.0
2017-Dec-02 06:30N 33°18' E 131°42'4 0.6
2017-Dec-02 00:39N 33°16' E 131°46'0 0.8
2017-Dec-02 00:30N 33°16' E 131°46'4 7.3
2017-Dec-02 00:00N 33°17' E 131°50'612.9
2017-Dec-01 23:30N 33°19' E 131°57'710.5
2017-Dec-01 22:49N 33°12' E 131°59'31210.2
2017-Nov-30 16:20N 34°09' E 138°08'511.3
2017-Nov-30 15:55N 34°11' E 138°13'511.0
2017-Nov-30 15:29N 34°13' E 138°18'910.7
2017-Nov-30 14:41N 34°17' E 138°27'310.4
2017-Nov-30 14:22N 34°18' E 138°31'410.2
2017-Nov-30 14:00N 34°20' E 138°35'510.4
2017-Nov-30 13:30N 34°22' E 138°41'610.7
2017-Nov-30 12:55N 34°25' E 138°48'610.5
2017-Nov-30 12:23N 34°27' E 138°54'410.0
2017-Nov-30 12:00N 34°29' E 138°58'5 9.5
2017-Nov-30 11:30N 34°31' E 139°03'510.5
2017-Nov-30 11:00N 34°36' E 139°06'510.8
2017-Nov-30 10:30N 34°41' E 139°09'611.2
2017-Nov-30 10:00N 34°45' E 139°12'612.3
2017-Nov-30 09:30N 34°51' E 139°16'611.6
2017-Nov-30 08:59N 34°54' E 139°22'511.3
2017-Nov-30 08:30N 34°57' E 139°27'612.0
2017-Nov-30 08:01N 35°00' E 139°33'612.5
2017-Nov-30 07:31N 35°04' E 139°40'713.1
2017-Nov-30 07:00N 35°09' E 139°44'611.3
2017-Nov-30 06:30N 35°15' E 139°46'611.6
2017-Nov-30 06:01N 35°20' E 139°42'510.6
2017-Nov-30 05:30N 35°25' E 139°44'4 8.2
2017-Nov-30 05:00N 35°24' E 139°49'3 4.8
2017-Nov-30 04:23N 35°21' E 139°51'0 0.0
2017-Nov-30 03:59N 35°21' E 139°51'0 0.0
2017-Nov-30 03:29N 35°21' E 139°51'0 0.0
2017-Nov-30 02:59N 35°21' E 139°51'0 0.0
2017-Nov-30 02:29N 35°21' E 139°51'0 0.0
2017-Nov-30 01:59N 35°21' E 139°51'0 0.0
2017-Nov-30 01:29N 35°21' E 139°51'0 0.0
2017-Nov-30 00:59N 35°21' E 139°51'0 0.0
2017-Nov-30 00:29N 35°21' E 139°51'0 0.0
2017-Nov-29 23:59N 35°21' E 139°51'0 0.0
2017-Nov-29 23:29N 35°21' E 139°51'0 0.0
2017-Nov-29 22:53N 35°21' E 139°51'0 0.0
2017-Nov-29 22:26N 35°21' E 139°51'0 0.0
2017-Nov-29 21:59N 35°21' E 139°51'0 0.0
2017-Nov-29 21:26N 35°21' E 139°51'0 0.0
2017-Nov-29 20:59N 35°21' E 139°51'0 0.0
2017-Nov-29 20:29N 35°21' E 139°51'0 0.0
2017-Nov-29 19:53N 35°21' E 139°51'0 0.0
2017-Nov-29 19:29N 35°21' E 139°51'0 0.0
2017-Nov-29 18:59N 35°21' E 139°51'0 0.0
2017-Nov-29 18:29N 35°21' E 139°51'0 0.0
2017-Nov-29 17:59N 35°21' E 139°51'0 0.0
2017-Nov-29 17:29N 35°21' E 139°51'0 0.0
2017-Nov-29 16:59N 35°21' E 139°51'0 0.0
2017-Nov-29 16:29N 35°21' E 139°51'0 0.0
2017-Nov-29 15:59N 35°21' E 139°51'0 0.0
2017-Nov-29 15:29N 35°21' E 139°51'0 0.0
2017-Nov-29 14:59N 35°21' E 139°51'0 0.0
2017-Nov-29 14:26N 35°21' E 139°51'0 0.0
2017-Nov-29 13:59N 35°21' E 139°51'0 0.0
2017-Nov-29 13:29N 35°21' E 139°51'0 0.0
2017-Nov-29 12:56N 35°21' E 139°51'0 0.0
2017-Nov-29 12:29N 35°21' E 139°51'0 0.0
2017-Nov-29 11:59N 35°21' E 139°51'0 0.0
2017-Nov-29 11:29N 35°21' E 139°51'0 0.0
2017-Nov-29 10:59N 35°21' E 139°51'0 0.0
2017-Nov-29 10:29N 35°21' E 139°51'0 0.0
2017-Nov-29 09:59N 35°21' E 139°51'0 0.0
2017-Nov-29 09:29N 35°21' E 139°51'0 0.0
2017-Nov-29 08:59N 35°21' E 139°51'0 0.0
2017-Nov-29 08:29N 35°21' E 139°51'0 0.0
2017-Nov-29 07:59N 35°21' E 139°51'0 0.0
2017-Nov-29 07:29N 35°21' E 139°51'0 0.0
2017-Nov-29 06:59N 35°21' E 139°51'0 0.0
2017-Nov-29 06:29N 35°21' E 139°51'0 0.0
2017-Nov-29 05:59N 35°21' E 139°51'0 0.0
2017-Nov-29 05:26N 35°21' E 139°51'0 0.0
2017-Nov-29 04:59N 35°21' E 139°51'0 0.0
2017-Nov-29 04:29N 35°21' E 139°51'0 0.0
2017-Nov-29 03:59N 35°21' E 139°51'0 0.0
2017-Nov-29 03:29N 35°21' E 139°51'0 0.0
2017-Nov-29 02:59N 35°21' E 139°51'0 0.0
2017-Nov-29 02:29N 35°21' E 139°51'0 0.0
2017-Nov-29 01:53N 35°21' E 139°51'0 0.0
2017-Nov-29 01:29N 35°21' E 139°51'0 0.0
2017-Nov-29 00:59N 35°21' E 139°51'0 0.0
2017-Nov-29 00:26N 35°21' E 139°51'0 0.0
2017-Nov-28 23:59N 35°21' E 139°51'0 0.0
2017-Nov-28 23:29N 35°21' E 139°51'0 0.0
2017-Nov-28 22:59N 35°21' E 139°51'0 0.0
2017-Nov-28 22:23N 35°21' E 139°51'0 0.0
2017-Nov-28 21:59N 35°21' E 139°51'0 0.0
2017-Nov-28 21:29N 35°21' E 139°51'0 0.0
2017-Nov-28 20:59N 35°21' E 139°51'0 0.0
2017-Nov-28 20:29N 35°21' E 139°51'0 0.0
2017-Nov-28 19:59N 35°21' E 139°51'0 0.0
2017-Nov-28 19:29N 35°21' E 139°51'0 0.0
2017-Nov-28 18:59N 35°21' E 139°51'0 0.0
2017-Nov-28 18:29N 35°21' E 139°51'0 0.0
2017-Nov-28 17:59N 35°21' E 139°51'0 0.0
2017-Nov-28 17:26N 35°21' E 139°51'0 0.0
2017-Nov-28 16:59N 35°21' E 139°51'0 0.0
2017-Nov-28 16:29N 35°21' E 139°51'0 0.0
2017-Nov-28 15:59N 35°21' E 139°51'0 0.0
2017-Nov-28 14:59N 35°21' E 139°51'0 0.0
2017-Nov-28 14:26N 35°21' E 139°51'0 0.0
2017-Nov-28 13:59N 35°21' E 139°51'0 0.0
2017-Nov-28 13:29N 35°21' E 139°51'0 0.0
2017-Nov-28 12:59N 35°21' E 139°51'0 0.0
2017-Nov-28 12:29N 35°21' E 139°51'0 0.0
2017-Nov-28 11:59N 35°21' E 139°51'0 0.0
2017-Nov-28 11:29N 35°21' E 139°51'0 0.0
2017-Nov-28 10:56N 35°21' E 139°51'0 0.0
2017-Nov-28 10:29N 35°21' E 139°51'0 0.0
2017-Nov-28 09:59N 35°21' E 139°51'0 0.0
2017-Nov-28 09:29N 35°21' E 139°51'0 0.0
2017-Nov-28 08:56N 35°21' E 139°51'0 0.0
2017-Nov-28 08:29N 35°21' E 139°51'0 0.0
2017-Nov-28 07:59N 35°21' E 139°51'0 0.0
2017-Nov-28 07:29N 35°21' E 139°51'0 0.0
2017-Nov-28 06:41N 35°21' E 139°51'0 0.0
2017-Nov-28 06:29N 35°21' E 139°51'0 0.0
2017-Nov-28 05:59N 35°21' E 139°51'0 0.0
2017-Nov-28 05:29N 35°21' E 139°51'0 0.0
2017-Nov-28 04:29N 35°21' E 139°51'0 0.0
2017-Nov-28 03:56N 35°21' E 139°51'0 0.0
2017-Nov-28 03:29N 35°21' E 139°51'0 0.0
2017-Nov-28 02:59N 35°21' E 139°51'0 0.0
2017-Nov-28 02:26N 35°21' E 139°51'0 0.0
2017-Nov-28 01:59N 35°21' E 139°51'0 0.0
2017-Nov-28 01:17N 35°21' E 139°51'0 0.0
2017-Nov-28 00:59N 35°21' E 139°51'0 0.0
2017-Nov-28 00:29N 35°21' E 139°51'0 0.0
2017-Nov-27 23:59N 35°21' E 139°51'0 0.0
2017-Nov-27 23:29N 35°21' E 139°51'0 0.0
2017-Nov-27 22:53N 35°21' E 139°51'0 0.0
2017-Nov-27 22:29N 35°21' E 139°51'0 0.0
2017-Nov-27 21:59N 35°21' E 139°51'0 0.0
2017-Nov-27 21:29N 35°21' E 139°51'0 0.0
2017-Nov-27 20:59N 35°21' E 139°51'0 0.0
2017-Nov-27 20:29N 35°21' E 139°51'0 0.6
2017-Nov-27 20:00N 35°22' E 139°51'0 0.1
2017-Nov-27 19:30N 35°22' E 139°51'0 0.0
2017-Nov-27 19:00N 35°22' E 139°51'0 0.0
2017-Nov-27 18:30N 35°22' E 139°51'0 0.0
2017-Nov-27 18:00N 35°22' E 139°51'0 0.0
2017-Nov-27 17:30N 35°22' E 139°51'0 0.0
2017-Nov-27 17:00N 35°22' E 139°51'0 0.0
2017-Nov-27 16:30N 35°22' E 139°51'0 0.0
2017-Nov-27 16:00N 35°22' E 139°51'0 0.0
2017-Nov-27 15:30N 35°22' E 139°51'0 0.0
2017-Nov-27 14:54N 35°22' E 139°51'0 0.0
2017-Nov-27 14:30N 35°22' E 139°51'0 0.0
2017-Nov-27 14:00N 35°22' E 139°51'0 0.0
2017-Nov-27 13:30N 35°22' E 139°51'0 0.0
2017-Nov-27 13:00N 35°22' E 139°51'0 0.0
2017-Nov-27 12:30N 35°22' E 139°51'0 0.0
2017-Nov-27 12:00N 35°22' E 139°51'0 0.0
2017-Nov-27 11:30N 35°22' E 139°51'0 0.0
2017-Nov-27 10:51N 35°22' E 139°51'0 0.0
2017-Nov-27 10:30N 35°22' E 139°51'0 0.0
2017-Nov-27 10:00N 35°22' E 139°51'0 0.0
2017-Nov-27 09:30N 35°22' E 139°51'0 0.0
2017-Nov-27 09:00N 35°22' E 139°51'0 0.0
2017-Nov-27 08:27N 35°22' E 139°51'0 0.0
2017-Nov-27 07:54N 35°22' E 139°51'0 0.0
2017-Nov-27 07:30N 35°22' E 139°51'0 0.0
2017-Nov-27 06:42N 35°22' E 139°51'0 0.0
2017-Nov-27 06:30N 35°22' E 139°51'0 0.0
2017-Nov-27 06:00N 35°22' E 139°51'0 0.0
2017-Nov-27 05:27N 35°22' E 139°51'0 0.0
2017-Nov-27 05:00N 35°22' E 139°51'0 0.0
2017-Nov-27 04:27N 35°22' E 139°51'0 0.0
2017-Nov-27 04:00N 35°22' E 139°51'0 0.0
2017-Nov-27 03:21N 35°22' E 139°51'0 0.0
2017-Nov-27 03:00N 35°22' E 139°51'0 0.0
2017-Nov-27 02:27N 35°22' E 139°51'0 0.0
2017-Nov-27 02:00N 35°22' E 139°51'0 0.0
2017-Nov-27 01:30N 35°22' E 139°51'0 0.0
2017-Nov-27 01:00N 35°22' E 139°51'0 0.0
2017-Nov-27 00:27N 35°22' E 139°51'0 0.0
2017-Nov-27 00:00N 35°22' E 139°51'0 0.0
2017-Nov-26 23:30N 35°22' E 139°51'0 0.0
2017-Nov-26 23:00N 35°22' E 139°51'0 0.0
2017-Nov-26 22:27N 35°22' E 139°51'0 0.0
2017-Nov-26 21:54N 35°22' E 139°51'0 0.0
2017-Nov-26 21:30N 35°22' E 139°51'0 0.0
2017-Nov-26 20:57N 35°22' E 139°51'0 0.0
2017-Nov-26 20:30N 35°22' E 139°51'0 0.0
2017-Nov-26 20:00N 35°22' E 139°51'0 0.0
2017-Nov-26 19:30N 35°22' E 139°51'0 0.0
2017-Nov-26 19:00N 35°22' E 139°51'0 0.0
2017-Nov-26 18:30N 35°22' E 139°51'0 0.0
2017-Nov-26 18:00N 35°22' E 139°51'0 0.0
2017-Nov-26 17:30N 35°22' E 139°51'0 0.0
2017-Nov-26 17:00N 35°22' E 139°51'0 0.0
2017-Nov-26 16:21N 35°22' E 139°51'0 0.0
2017-Nov-26 16:00N 35°22' E 139°51'0 0.0
2017-Nov-26 15:30N 35°22' E 139°51'0 0.0
2017-Nov-26 15:00N 35°22' E 139°51'0 0.0
2017-Nov-26 14:27N 35°22' E 139°51'0 0.0
2017-Nov-26 14:00N 35°22' E 139°51'0 0.0
2017-Nov-26 13:30N 35°22' E 139°51'0 0.0
2017-Nov-26 13:00N 35°22' E 139°51'0 0.0
2017-Nov-26 12:30N 35°22' E 139°51'0 0.0
2017-Nov-26 12:00N 35°22' E 139°51'0 0.0
2017-Nov-26 11:30N 35°22' E 139°51'0 0.0
2017-Nov-26 11:00N 35°22' E 139°51'0 0.0
2017-Nov-26 10:30N 35°22' E 139°51'0 0.0
2017-Nov-26 09:57N 35°22' E 139°51'0 0.0
2017-Nov-26 09:30N 35°22' E 139°51'0 0.0
2017-Nov-26 09:00N 35°22' E 139°51'0 0.0
2017-Nov-26 08:30N 35°22' E 139°51'0 0.0
2017-Nov-26 08:00N 35°22' E 139°51'0 0.0
2017-Nov-26 07:30N 35°22' E 139°51'0 0.0
2017-Nov-26 07:00N 35°22' E 139°51'0 0.0
2017-Nov-26 06:24N 35°22' E 139°51'0 0.0
2017-Nov-26 05:42N 35°22' E 139°51'0 0.0
2017-Nov-26 05:24N 35°22' E 139°51'0 0.0
2017-Nov-26 05:00N 35°22' E 139°51'0 0.0
2017-Nov-26 04:30N 35°22' E 139°51'0 0.0
2017-Nov-26 03:57N 35°22' E 139°51'0 0.0
2017-Nov-26 03:30N 35°22' E 139°51'0 0.0
2017-Nov-26 03:00N 35°22' E 139°51'0 0.0
2017-Nov-26 02:30N 35°22' E 139°51'0 0.0
2017-Nov-26 02:00N 35°22' E 139°51'0 0.0
2017-Nov-26 01:27N 35°22' E 139°51'0 0.0
2017-Nov-26 01:00N 35°22' E 139°51'0 0.0
2017-Nov-26 00:24N 35°22' E 139°51'0 0.0
2017-Nov-25 23:45N 35°22' E 139°51'0 0.0
2017-Nov-25 23:30N 35°22' E 139°51'0 0.0
2017-Nov-25 22:57N 35°22' E 139°51'0 0.0
2017-Nov-25 22:30N 35°22' E 139°51'0 0.0
2017-Nov-25 21:57N 35°22' E 139°51'0 0.0
2017-Nov-25 21:30N 35°22' E 139°51'0 0.0
2017-Nov-25 21:00N 35°22' E 139°51'0 0.0
2017-Nov-25 20:30N 35°22' E 139°51'0 0.0
2017-Nov-25 19:51N 35°22' E 139°51'0 0.0
2017-Nov-25 19:27N 35°22' E 139°51'0 0.0
2017-Nov-25 19:00N 35°22' E 139°51'0 0.0
2017-Nov-25 18:27N 35°22' E 139°51'0 0.0
2017-Nov-25 17:57N 35°22' E 139°51'0 0.0
2017-Nov-25 17:27N 35°22' E 139°51'0 0.0
2017-Nov-25 16:57N 35°22' E 139°51'0 0.0
2017-Nov-25 16:27N 35°22' E 139°51'0 0.0
2017-Nov-25 15:57N 35°22' E 139°51'0 0.0
2017-Nov-25 15:30N 35°22' E 139°51'0 0.0
2017-Nov-25 15:00N 35°22' E 139°51'0 0.0
2017-Nov-25 14:27N 35°22' E 139°51'0 0.0
2017-Nov-25 14:00N 35°22' E 139°51'0 0.0
2017-Nov-25 13:30N 35°22' E 139°51'0 0.0
2017-Nov-25 13:00N 35°22' E 139°51'0 0.0
2017-Nov-25 12:27N 35°22' E 139°51'0 0.0
2017-Nov-25 11:57N 35°22' E 139°51'0 0.0
2017-Nov-25 11:27N 35°22' E 139°51'0 0.0
2017-Nov-25 11:00N 35°22' E 139°51'0 0.0
2017-Nov-25 10:27N 35°22' E 139°51'0 0.0
2017-Nov-25 09:45N 35°22' E 139°51'0 0.0
2017-Nov-25 09:30N 35°22' E 139°51'0 0.0
2017-Nov-25 08:57N 35°22' E 139°51'0 0.0
2017-Nov-25 08:30N 35°22' E 139°51'0 0.0
2017-Nov-25 07:54N 35°22' E 139°51'0 0.0
2017-Nov-25 07:30N 35°22' E 139°51'0 0.0
2017-Nov-25 06:51N 35°22' E 139°51'0 0.0
2017-Nov-25 06:30N 35°22' E 139°51'0 0.0
2017-Nov-25 05:42N 35°22' E 139°51'0 0.0
2017-Nov-25 05:30N 35°22' E 139°51'0 0.0
2017-Nov-25 04:57N 35°22' E 139°51'0 0.0
2017-Nov-25 04:27N 35°22' E 139°51'0 0.0
2017-Nov-25 04:00N 35°22' E 139°51'0 0.0
2017-Nov-25 03:24N 35°22' E 139°51'0 0.0
2017-Nov-25 02:54N 35°22' E 139°51'0 0.0
2017-Nov-25 02:27N 35°22' E 139°51'0 0.0
2017-Nov-25 02:00N 35°22' E 139°51'0 0.0
2017-Nov-25 01:30N 35°22' E 139°51'0 0.0
2017-Nov-25 01:00N 35°22' E 139°51'0 0.0
2017-Nov-25 00:30N 35°22' E 139°51'0 0.0
2017-Nov-25 00:00N 35°22' E 139°51'0 0.0
2017-Nov-24 23:30N 35°22' E 139°51'0 0.0
2017-Nov-24 23:00N 35°22' E 139°51'0 0.0
2017-Nov-24 22:27N 35°22' E 139°51'0 0.0
2017-Nov-24 21:54N 35°22' E 139°51'0 0.0
2017-Nov-24 21:24N 35°22' E 139°51'0 0.0
2017-Nov-24 20:54N 35°22' E 139°51'0 0.1
2017-Nov-24 20:30N 35°22' E 139°51'1 2.2
2017-Nov-24 20:01N 35°22' E 139°50'2 3.9
2017-Nov-24 19:29N 35°22' E 139°47'0 0.1
2017-Nov-24 18:59N 35°22' E 139°47'0 0.0
2017-Nov-24 18:29N 35°22' E 139°47'0 0.0
2017-Nov-24 17:59N 35°22' E 139°47'0 0.1
2017-Nov-24 17:29N 35°22' E 139°47'0 0.0
2017-Nov-24 16:56N 35°22' E 139°47'0 0.0
2017-Nov-24 16:29N 35°22' E 139°47'0 0.2
2017-Nov-24 15:59N 35°22' E 139°47'0 0.1
2017-Nov-24 15:29N 35°22' E 139°47'0 0.0
2017-Nov-24 14:59N 35°22' E 139°47'0 0.0
2017-Nov-24 14:29N 35°22' E 139°47'0 0.0
2017-Nov-24 13:59N 35°22' E 139°47'0 0.1
2017-Nov-24 13:29N 35°22' E 139°47'0 0.1
2017-Nov-24 12:59N 35°22' E 139°47'0 0.0
2017-Nov-24 12:29N 35°22' E 139°47'0 0.0
2017-Nov-24 11:59N 35°22' E 139°47'0 0.0
2017-Nov-24 11:29N 35°22' E 139°47'0 0.0
2017-Nov-24 10:59N 35°22' E 139°47'0 0.0
2017-Nov-24 10:29N 35°22' E 139°47'0 0.1
2017-Nov-24 09:56N 35°22' E 139°47'0 0.0
2017-Nov-24 09:29N 35°22' E 139°47'0 0.2
2017-Nov-24 08:56N 35°22' E 139°47'0 0.1
2017-Nov-24 08:29N 35°22' E 139°47'0 0.1
2017-Nov-24 07:59N 35°22' E 139°47'0 0.0
2017-Nov-24 07:29N 35°22' E 139°47'0 0.0
2017-Nov-24 06:56N 35°22' E 139°47'0 0.0
2017-Nov-24 06:29N 35°22' E 139°47'0 0.0
2017-Nov-24 05:59N 35°22' E 139°47'0 0.0
2017-Nov-24 05:29N 35°22' E 139°47'0 0.0
2017-Nov-24 04:59N 35°22' E 139°47'0 0.0
2017-Nov-24 04:29N 35°22' E 139°47'0 0.0
2017-Nov-24 03:59N 35°22' E 139°47'0 0.1
2017-Nov-24 03:29N 35°22' E 139°47'0 0.0
2017-Nov-24 02:59N 35°22' E 139°47'0 0.3
2017-Nov-24 02:29N 35°22' E 139°47'0 0.3
2017-Nov-24 01:59N 35°22' E 139°47'0 0.0
2017-Nov-24 01:29N 35°22' E 139°47'0 0.0
2017-Nov-24 00:59N 35°22' E 139°47'0 0.0
2017-Nov-24 00:29N 35°22' E 139°47'0 0.0
2017-Nov-23 23:59N 35°22' E 139°47'0 0.0
2017-Nov-23 23:29N 35°22' E 139°47'0 0.0
2017-Nov-23 22:59N 35°22' E 139°47'0 0.1
2017-Nov-23 22:29N 35°22' E 139°47'0 0.0
2017-Nov-23 21:59N 35°22' E 139°47'0 0.0
2017-Nov-23 21:29N 35°22' E 139°47'0 0.0
2017-Nov-23 20:59N 35°22' E 139°47'0 0.0
2017-Nov-23 20:29N 35°22' E 139°47'0 0.1
2017-Nov-23 19:59N 35°22' E 139°47'0 0.0
2017-Nov-23 19:29N 35°22' E 139°47'0 0.0
2017-Nov-23 18:59N 35°22' E 139°47'0 0.0
2017-Nov-23 18:29N 35°22' E 139°47'0 0.0
2017-Nov-23 17:59N 35°22' E 139°47'0 0.0
2017-Nov-23 17:29N 35°22' E 139°47'0 0.1
2017-Nov-23 16:59N 35°22' E 139°47'0 0.0
2017-Nov-23 16:29N 35°22' E 139°47'0 0.0
2017-Nov-23 15:59N 35°22' E 139°47'0 0.1
2017-Nov-23 15:29N 35°22' E 139°47'0 0.1
2017-Nov-23 14:59N 35°22' E 139°47'0 0.0
2017-Nov-23 14:29N 35°22' E 139°47'0 0.1
2017-Nov-23 13:59N 35°22' E 139°47'0 0.1
2017-Nov-23 13:29N 35°22' E 139°47'0 0.0
2017-Nov-23 12:59N 35°22' E 139°47'0 0.1
2017-Nov-23 12:29N 35°22' E 139°47'0 0.0
2017-Nov-23 11:56N 35°22' E 139°47'0 0.0
2017-Nov-23 11:29N 35°22' E 139°47'0 0.0
2017-Nov-23 10:59N 35°22' E 139°47'0 0.1
2017-Nov-23 10:29N 35°22' E 139°47'0 0.0
2017-Nov-23 09:59N 35°22' E 139°47'0 0.1
2017-Nov-23 09:29N 35°22' E 139°47'  

Dump ship's entire track history